createdAt,value
2018-02-17T00:01:21.145Z,97.10
2018-02-17T00:03:49.004Z,97.00
2018-02-17T00:06:16.509Z,97.00
2018-02-17T00:08:43.971Z,97.10
2018-02-17T00:11:11.413Z,97.10
2018-02-17T00:13:38.913Z,97.20
2018-02-17T00:16:06.356Z,97.30
2018-02-17T00:18:33.820Z,97.60
2018-02-17T00:21:01.367Z,97.30
2018-02-17T00:23:29.523Z,97.10
2018-02-17T00:25:56.957Z,96.90
2018-02-17T00:28:24.494Z,96.90
2018-02-17T00:30:52.371Z,96.80
2018-02-17T00:33:20.381Z,96.90
2018-02-17T00:35:47.817Z,96.90
2018-02-17T00:38:15.480Z,97.00
2018-02-17T00:40:42.969Z,97.00
2018-02-17T00:43:10.547Z,97.00
2018-02-17T00:45:38.069Z,96.60
2018-02-17T00:48:05.800Z,96.30
2018-02-17T00:50:33.745Z,96.40
2018-02-17T00:53:01.538Z,96.40
2018-02-17T00:55:29.392Z,96.60
2018-02-17T00:57:56.847Z,96.60
2018-02-17T01:00:24.505Z,96.70
2018-02-17T01:02:52.524Z,96.60
2018-02-17T01:05:19.990Z,96.40
2018-02-17T01:07:57.209Z,96.50
2018-02-17T01:10:24.688Z,96.40
2018-02-17T01:12:52.173Z,96.40
2018-02-17T01:15:19.662Z,96.40
2018-02-17T01:17:47.109Z,96.40
2018-02-17T01:20:14.613Z,96.40
2018-02-17T01:22:42.103Z,96.60
2018-02-17T01:25:10.050Z,96.90
2018-02-17T01:27:37.524Z,96.90
2018-02-17T01:30:04.964Z,96.80
2018-02-17T01:32:32.408Z,96.70
2018-02-17T01:34:59.882Z,96.40
2018-02-17T01:37:27.314Z,96.50
2018-02-17T01:39:54.764Z,96.40
2018-02-17T01:42:22.222Z,96.30
2018-02-17T01:44:49.664Z,96.50
2018-02-17T01:47:17.092Z,96.50
2018-02-17T01:49:44.580Z,96.60
2018-02-17T01:52:12.013Z,96.70
2018-02-17T01:54:39.448Z,96.90
2018-02-17T01:57:07.299Z,96.80
2018-02-17T01:59:34.817Z,96.90
2018-02-17T02:02:02.278Z,96.90
2018-02-17T02:04:29.748Z,97.00
2018-02-17T02:06:57.261Z,96.80
2018-02-17T02:09:24.769Z,96.80
2018-02-17T02:11:52.353Z,96.80
2018-02-17T02:14:19.826Z,96.90
2018-02-17T02:16:47.370Z,96.90
2018-02-17T02:19:14.801Z,96.90
2018-02-17T02:21:42.268Z,97.00
2018-02-17T02:24:09.703Z,96.70
2018-02-17T02:26:37.124Z,96.60
2018-02-17T02:29:04.552Z,96.90
2018-02-17T02:31:31.969Z,97.00
2018-02-17T02:33:59.413Z,97.10
2018-02-17T02:36:26.837Z,97.10
2018-02-17T02:38:54.658Z,97.10
2018-02-17T02:41:22.104Z,97.10
2018-02-17T02:43:49.524Z,97.30
2018-02-17T02:46:16.951Z,97.30
2018-02-17T02:48:44.373Z,97.30
2018-02-17T02:51:11.797Z,97.30
2018-02-17T02:53:39.226Z,97.20
2018-02-17T02:56:06.652Z,97.10
2018-02-17T02:58:34.076Z,97.20
2018-02-17T03:01:01.528Z,97.20
2018-02-17T03:03:28.948Z,97.00
2018-02-17T03:05:56.768Z,96.90
2018-02-17T03:08:24.189Z,96.90
2018-02-17T03:10:52.016Z,96.90
2018-02-17T03:13:19.436Z,96.90
2018-02-17T03:15:46.908Z,96.90
2018-02-17T03:18:14.370Z,96.90
2018-02-17T03:20:41.812Z,97.10
2018-02-17T03:23:09.228Z,97.10
2018-02-17T03:25:37.040Z,97.00
2018-02-17T03:28:04.467Z,97.00
2018-02-17T03:30:31.991Z,96.90
2018-02-17T03:32:59.375Z,96.90
2018-02-17T03:35:26.790Z,96.90
2018-02-17T03:37:54.218Z,96.80
2018-02-17T03:40:21.640Z,96.80
2018-02-17T03:42:49.080Z,96.90
2018-02-17T03:45:16.896Z,97.00
2018-02-17T03:47:44.341Z,97.00
2018-02-17T03:50:11.761Z,97.20
2018-02-17T03:52:39.617Z,97.00
2018-02-17T03:55:07.046Z,97.00
2018-02-17T03:57:34.493Z,96.90
2018-02-17T04:00:01.923Z,96.90
2018-02-17T04:02:29.369Z,96.90
2018-02-17T04:04:56.777Z,97.10
2018-02-17T04:07:24.243Z,97.10
2018-02-17T04:09:51.656Z,97.00
2018-02-17T04:12:19.078Z,97.10
2018-02-17T04:14:47.404Z,97.10
2018-02-17T04:17:14.829Z,97.10
2018-02-17T04:19:42.282Z,97.20
2018-02-17T04:22:09.718Z,97.20
2018-02-17T04:24:37.550Z,97.30
2018-02-17T04:27:04.991Z,97.30
2018-02-17T04:29:32.436Z,97.20
2018-02-17T04:31:59.861Z,97.20
2018-02-17T04:34:27.293Z,97.20
2018-02-17T04:36:54.772Z,97.30
2018-02-17T04:39:22.185Z,97.30
2018-02-17T04:41:55.364Z,97.30
2018-02-17T04:44:23.585Z,97.30
2018-02-17T04:50:09.745Z,97.20
2018-02-17T04:52:40.165Z,97.20
2018-02-17T04:55:24.423Z,97.30
2018-02-17T04:57:55.744Z,97.30
2018-02-17T05:00:23.169Z,97.00
2018-02-17T05:03:05.481Z,97.00
2018-02-17T05:05:51.970Z,97.00
2018-02-17T05:08:35.217Z,97.00
2018-02-17T05:11:03.024Z,97.00
2018-02-17T05:13:30.472Z,97.00
2018-02-17T05:16:03.486Z,97.00
2018-02-17T05:18:36.733Z,97.20
2018-02-17T05:21:05.595Z,97.20
2018-02-17T05:23:33.413Z,96.90
2018-02-17T05:26:00.860Z,96.90
2018-02-17T05:28:34.100Z,96.90
2018-02-17T05:31:03.486Z,96.90
2018-02-17T05:33:50.817Z,96.90
2018-02-17T05:36:28.905Z,96.90
2018-02-17T05:38:58.773Z,96.90
2018-02-17T05:41:27.767Z,97.20
2018-02-17T05:43:55.197Z,97.20
2018-02-17T05:49:39.197Z,97.20
2018-02-17T05:52:06.620Z,97.10
2018-02-17T05:54:34.440Z,97.20
2018-02-17T05:57:01.856Z,97.20
2018-02-17T05:59:29.296Z,97.10
2018-02-17T06:01:56.728Z,97.10
2018-02-17T06:04:24.149Z,97.00
2018-02-17T06:06:51.580Z,96.90
2018-02-17T06:09:19.012Z,96.90
2018-02-17T06:11:46.843Z,96.90
2018-02-17T06:14:14.280Z,96.90
2018-02-17T06:16:41.733Z,96.90
2018-02-17T06:19:09.157Z,96.70
2018-02-17T06:21:36.632Z,96.70
2018-02-17T06:24:04.008Z,96.80
2018-02-17T06:26:31.445Z,96.80
2018-02-17T06:28:58.863Z,96.80
2018-02-17T06:31:26.705Z,96.50
2018-02-17T06:33:54.135Z,96.50
2018-02-17T06:36:21.569Z,96.60
2018-02-17T06:38:48.997Z,96.50
2018-02-17T06:41:16.429Z,96.40
2018-02-17T06:43:43.854Z,96.30
2018-02-17T06:46:11.312Z,96.40
2018-02-17T06:48:38.733Z,96.50
2018-02-17T06:51:06.565Z,96.40
2018-02-17T06:53:33.985Z,96.40
2018-02-17T06:56:01.415Z,96.50
2018-02-17T06:58:28.833Z,96.60
2018-02-17T07:00:56.254Z,96.50
2018-02-17T07:03:23.715Z,96.50
2018-02-17T07:05:51.119Z,96.50
2018-02-17T07:08:18.976Z,96.30
2018-02-17T07:10:46.388Z,96.30
2018-02-17T07:13:13.832Z,96.20
2018-02-17T07:15:41.320Z,96.20
2018-02-17T07:18:08.754Z,96.10
2018-02-17T07:20:36.186Z,96.20
2018-02-17T07:23:03.616Z,96.20
2018-02-17T07:25:31.048Z,96.30
2018-02-17T07:27:58.512Z,96.30
2018-02-17T07:30:25.942Z,96.10
2018-02-17T07:32:53.535Z,96.00
2018-02-17T07:35:20.968Z,96.10
2018-02-17T07:37:48.628Z,96.10
2018-02-17T07:40:16.102Z,96.10
2018-02-17T07:42:43.617Z,96.00
2018-02-17T07:45:11.018Z,95.90
2018-02-17T07:47:38.471Z,95.80
2018-02-17T07:50:05.915Z,95.70
2018-02-17T07:52:33.368Z,95.40
2018-02-17T07:55:00.825Z,95.50
2018-02-17T07:57:28.292Z,95.30
2018-02-17T07:59:55.796Z,95.20
2018-02-17T08:02:23.241Z,95.20
2018-02-17T08:04:51.096Z,95.20
2018-02-17T08:07:18.977Z,95.20
2018-02-17T08:09:46.661Z,95.10
2018-02-17T08:12:14.188Z,95.00
2018-02-17T08:14:42.308Z,94.90
2018-02-17T08:17:09.797Z,94.70
2018-02-17T08:19:37.697Z,94.90
2018-02-17T08:22:05.538Z,94.70
2018-02-17T08:24:33.015Z,94.70
2018-02-17T08:27:00.553Z,94.60
2018-02-17T08:29:28.023Z,94.50
2018-02-17T08:31:55.704Z,94.40
2018-02-17T08:34:23.635Z,94.10
2018-02-17T08:36:51.602Z,94.00
2018-02-17T08:39:19.189Z,94.00
2018-02-17T08:41:46.657Z,94.10
2018-02-17T08:44:14.135Z,94.10
2018-02-17T08:46:41.652Z,93.90
2018-02-17T08:49:10.091Z,94.00
2018-02-17T08:51:37.516Z,94.10
2018-02-17T08:54:05.370Z,93.80
2018-02-17T08:56:33.376Z,94.00
2018-02-17T08:59:00.798Z,94.00
2018-02-17T09:01:28.217Z,93.80
2018-02-17T09:03:56.049Z,93.60
2018-02-17T09:06:23.469Z,93.40
2018-02-17T09:08:51.304Z,93.20
2018-02-17T09:11:19.364Z,93.20
2018-02-17T09:13:46.804Z,93.20
2018-02-17T09:16:14.240Z,93.20
2018-02-17T09:18:41.660Z,93.00
2018-02-17T09:21:09.077Z,92.90
2018-02-17T09:23:36.523Z,92.50
2018-02-17T09:26:03.937Z,92.70
2018-02-17T09:28:31.773Z,92.70
2018-02-17T09:30:59.202Z,92.70
2018-02-17T09:33:26.632Z,92.60
2018-02-17T09:35:54.073Z,92.20
2018-02-17T09:38:21.496Z,91.80
2018-02-17T09:40:48.978Z,91.70
2018-02-17T09:43:16.348Z,92.00
2018-02-17T09:45:44.160Z,91.30
2018-02-17T09:48:11.820Z,91.30
2018-02-17T09:50:39.232Z,91.50
2018-02-17T09:53:06.673Z,91.30
2018-02-17T09:55:34.093Z,90.70
2018-02-17T09:58:01.533Z,91.10
2018-02-17T10:00:28.960Z,91.30
2018-02-17T10:02:56.787Z,90.90
2018-02-17T10:05:24.211Z,90.90
2018-02-17T10:07:51.664Z,90.20
2018-02-17T10:10:19.770Z,90.30
2018-02-17T10:12:47.204Z,90.50
2018-02-17T10:15:14.793Z,90.30
2018-02-17T10:17:42.225Z,90.20
2018-02-17T10:20:09.649Z,89.80
2018-02-17T10:22:37.088Z,89.70
2018-02-17T10:25:04.933Z,89.70
2018-02-17T10:27:32.357Z,89.70
2018-02-17T10:29:59.897Z,89.70
2018-02-17T10:32:27.791Z,89.10
2018-02-17T10:34:55.193Z,89.10
2018-02-17T10:37:23.123Z,88.90
2018-02-17T10:39:50.565Z,88.90
2018-02-17T10:42:18.014Z,89.10
2018-02-17T10:44:45.420Z,88.90
2018-02-17T10:47:13.249Z,88.50
2018-02-17T10:49:40.701Z,88.50
2018-02-17T10:52:08.122Z,88.60
2018-02-17T10:54:35.553Z,88.40
2018-02-17T10:57:02.982Z,88.20
2018-02-17T10:59:30.404Z,88.00
2018-02-17T11:01:57.846Z,87.90
2018-02-17T11:04:25.268Z,87.80
2018-02-17T11:06:52.709Z,88.00
2018-02-17T11:09:20.139Z,87.60
2018-02-17T11:11:47.577Z,87.50
2018-02-17T11:14:15.016Z,87.70
2018-02-17T11:16:42.836Z,87.50
2018-02-17T11:19:10.273Z,87.50
2018-02-17T11:21:37.703Z,87.50
2018-02-17T11:24:05.800Z,87.90
2018-02-17T11:26:33.224Z,87.30
2018-02-17T11:29:00.657Z,87.40
2018-02-17T11:31:28.080Z,87.30
2018-02-17T11:33:55.528Z,87.30
2018-02-17T11:36:24.032Z,87.30
2018-02-17T11:38:51.469Z,87.30
2018-02-17T11:41:18.889Z,87.00
2018-02-17T11:43:46.325Z,86.90
2018-02-17T11:46:14.177Z,87.00
2018-02-17T11:48:41.605Z,87.00
2018-02-17T11:51:09.049Z,86.60
2018-02-17T11:53:36.484Z,86.60
2018-02-17T11:56:03.898Z,86.60
2018-02-17T11:58:31.338Z,86.60
2018-02-17T12:00:58.748Z,86.50
2018-02-17T12:03:26.254Z,86.50
2018-02-17T12:05:54.357Z,86.20
2018-02-17T12:08:22.197Z,85.90
2018-02-17T12:10:49.617Z,85.90
2018-02-17T12:13:17.054Z,85.30
2018-02-17T12:15:44.470Z,85.30
2018-02-17T12:18:11.905Z,85.00
2018-02-17T12:20:39.329Z,84.60
2018-02-17T12:23:06.763Z,84.60
2018-02-17T12:25:34.572Z,84.50
2018-02-17T12:28:02.009Z,84.50
2018-02-17T12:30:29.437Z,84.60
2018-02-17T12:32:56.871Z,84.50
2018-02-17T12:35:24.292Z,84.20
2018-02-17T12:37:51.723Z,84.10
2018-02-17T12:40:19.165Z,84.20
2018-02-17T12:42:46.587Z,84.10
2018-02-17T12:45:14.024Z,83.50
2018-02-17T12:47:41.477Z,83.60
2018-02-17T12:50:08.921Z,83.20
2018-02-17T12:52:36.373Z,83.00
2018-02-17T12:55:03.888Z,83.50
2018-02-17T12:57:31.313Z,83.40
2018-02-17T12:59:58.749Z,82.90
2018-02-17T13:02:26.177Z,82.30
2018-02-17T13:04:53.600Z,82.70
2018-02-17T13:07:21.029Z,82.30
2018-02-17T13:09:48.485Z,81.90
2018-02-17T13:12:15.916Z,82.40
2018-02-17T13:14:43.362Z,81.80
2018-02-17T13:17:11.186Z,82.20
2018-02-17T13:19:38.628Z,82.20
2018-02-17T13:22:06.053Z,82.10
2018-02-17T13:24:33.482Z,81.40
2018-02-17T13:27:00.906Z,81.30
2018-02-17T13:29:28.340Z,81.20
2018-02-17T13:31:55.756Z,80.80
2018-02-17T13:34:23.608Z,80.80
2018-02-17T13:36:51.072Z,80.90
2018-02-17T13:39:18.461Z,80.80
2018-02-17T13:41:45.892Z,80.70
2018-02-17T13:44:13.321Z,81.10
2018-02-17T13:46:40.768Z,80.50
2018-02-17T13:49:08.200Z,80.40
2018-02-17T13:51:35.619Z,80.10
2018-02-17T13:54:03.460Z,80.50
2018-02-17T13:56:30.881Z,80.50
2018-02-17T13:58:58.308Z,80.30
2018-02-17T14:01:25.732Z,80.20
2018-02-17T14:03:53.169Z,79.90
2018-02-17T14:06:20.585Z,79.80
2018-02-17T14:08:48.033Z,79.30
2018-02-17T14:11:15.461Z,79.40
2018-02-17T14:13:42.918Z,79.30
2018-02-17T14:16:10.325Z,79.00
2018-02-17T14:18:37.753Z,79.20
2018-02-17T14:21:05.397Z,79.20
2018-02-17T14:23:32.772Z,79.00
2018-02-17T14:26:00.615Z,79.10
2018-02-17T14:28:28.549Z,79.20
2018-02-17T14:30:56.976Z,79.20
2018-02-17T14:33:27.551Z,78.80
2018-02-17T14:35:55.747Z,78.80
2018-02-17T14:38:25.183Z,79.40
2018-02-17T14:43:28.379Z,80.10
2018-02-17T14:45:57.428Z,80.50
2018-02-17T14:48:25.041Z,80.70
2018-02-17T14:50:53.672Z,80.40
2018-02-17T14:53:21.644Z,80.60
2018-02-17T14:55:51.578Z,80.80
2018-02-17T14:58:19.864Z,80.90
2018-02-17T15:00:47.697Z,81.20
2018-02-17T15:03:15.909Z,81.20
2018-02-17T15:05:43.833Z,81.50
2018-02-17T15:08:13.183Z,81.50
2018-02-17T15:10:42.052Z,81.90
2018-02-17T15:13:11.598Z,82.30
2018-02-17T15:15:41.401Z,82.50
2018-02-17T15:18:10.158Z,82.40
2018-02-17T15:20:38.917Z,82.50
2018-02-17T15:23:06.898Z,82.50
2018-02-17T15:25:35.938Z,82.80
2018-02-17T15:28:06.630Z,82.70
2018-02-17T15:30:34.161Z,82.90
2018-02-17T15:33:03.175Z,82.70
2018-02-17T15:35:32.045Z,82.90
2018-02-17T15:38:02.754Z,82.70
2018-02-17T15:40:31.340Z,82.70
2018-02-17T15:42:58.789Z,82.70
2018-02-17T15:45:26.965Z,82.50
2018-02-17T15:47:55.443Z,81.80
2018-02-17T15:50:24.988Z,81.80
2018-02-17T15:52:56.528Z,81.80
2018-02-17T15:55:24.182Z,81.40
2018-02-17T15:57:55.018Z,81.20
2018-02-17T16:00:24.562Z,80.90
2018-02-17T16:02:55.823Z,81.20
2018-02-17T16:05:24.586Z,81.20
2018-02-17T16:07:55.515Z,81.40
2018-02-17T16:10:23.103Z,81.50
2018-02-17T16:12:52.441Z,81.70
2018-02-17T16:15:22.065Z,81.90
2018-02-17T16:17:50.970Z,81.90
2018-02-17T16:20:20.269Z,81.90
2018-02-17T16:22:47.696Z,82.30
2018-02-17T16:25:15.178Z,82.30
2018-02-17T16:27:42.606Z,82.50
2018-02-17T16:30:10.429Z,82.90
2018-02-17T16:32:37.869Z,82.90
2018-02-17T16:35:05.302Z,82.70
2018-02-17T16:37:32.748Z,82.80
2018-02-17T16:40:00.182Z,83.10
2018-02-17T16:42:27.593Z,83.10
2018-02-17T16:44:55.029Z,83.10
2018-02-17T16:47:22.463Z,82.90
2018-02-17T16:49:50.290Z,83.10
2018-02-17T16:52:17.723Z,83.10
2018-02-17T16:54:45.155Z,83.00
2018-02-17T16:57:12.582Z,82.90
2018-02-17T16:59:40.874Z,82.90
2018-02-17T17:02:08.688Z,82.90
2018-02-17T17:04:36.125Z,83.00
2018-02-17T17:07:03.550Z,83.00
2018-02-17T17:09:31.389Z,83.00
2018-02-17T17:11:58.816Z,83.00
2018-02-17T17:14:26.245Z,82.70
2018-02-17T17:16:53.673Z,83.00
2018-02-17T17:19:21.112Z,82.70
2018-02-17T17:21:48.532Z,82.90
2018-02-17T17:24:15.968Z,82.90
2018-02-17T17:26:43.397Z,82.70
2018-02-17T17:29:11.251Z,82.50
2018-02-17T17:31:38.640Z,82.60
2018-02-17T17:34:06.089Z,82.90
2018-02-17T17:36:33.522Z,82.50
2018-02-17T17:39:00.958Z,82.70
2018-02-17T17:41:28.387Z,82.80
2018-02-17T17:43:55.886Z,82.60
2018-02-17T17:46:23.324Z,82.60
2018-02-17T17:48:50.740Z,82.70
2018-02-17T17:51:18.172Z,82.90
2018-02-17T17:53:46.002Z,83.00
2018-02-17T17:56:13.432Z,83.00
2018-02-17T17:58:44.061Z,83.10
2018-02-17T18:01:11.493Z,83.10
2018-02-17T18:03:38.917Z,83.30
2018-02-17T18:06:06.360Z,83.30
2018-02-17T18:08:33.772Z,83.50
2018-02-17T18:11:01.212Z,83.70
2018-02-17T18:13:28.716Z,83.80
2018-02-17T18:15:56.180Z,83.80
2018-02-17T18:18:23.601Z,83.80
2018-02-17T18:20:51.033Z,83.80
2018-02-17T18:23:18.856Z,84.00
2018-02-17T18:25:46.292Z,84.00
2018-02-17T18:28:13.708Z,84.10
2018-02-17T18:30:41.533Z,84.10
2018-02-17T18:33:08.971Z,84.20
2018-02-17T18:35:36.414Z,84.20
2018-02-17T18:38:03.861Z,84.30
2018-02-17T18:40:31.301Z,84.30
2018-02-17T18:42:59.134Z,84.40
2018-02-17T18:45:26.566Z,84.40
2018-02-17T18:47:53.988Z,84.70
2018-02-17T18:50:21.821Z,84.70
2018-02-17T18:52:49.249Z,84.70
2018-02-17T18:55:16.682Z,84.80
2018-02-17T18:57:44.109Z,84.80
2018-02-17T19:00:11.540Z,84.90
2018-02-17T19:02:38.974Z,85.30
2018-02-17T19:05:06.473Z,85.20
2018-02-17T19:07:33.905Z,85.20
2018-02-17T19:10:01.365Z,85.10
2018-02-17T19:12:28.768Z,85.30
2018-02-17T19:14:56.264Z,85.30
2018-02-17T19:17:23.678Z,85.40
2018-02-17T19:19:51.149Z,85.30
2018-02-17T19:22:18.573Z,85.60
2018-02-17T19:24:46.417Z,85.70
2018-02-17T19:27:13.836Z,85.70
2018-02-17T19:29:41.273Z,85.50
2018-02-17T19:32:08.695Z,85.50
2018-02-17T19:34:36.175Z,85.50
2018-02-17T19:37:03.556Z,85.50
2018-02-17T19:39:30.990Z,85.60
2018-02-17T19:41:58.818Z,85.60
2018-02-17T19:44:26.250Z,85.60
2018-02-17T19:46:53.695Z,86.10
2018-02-17T19:49:21.122Z,86.10
2018-02-17T19:51:49.888Z,86.30
2018-02-17T19:54:17.337Z,86.30
2018-02-17T19:56:44.784Z,86.00
2018-02-17T19:59:12.208Z,85.80
2018-02-17T20:01:39.662Z,86.00
2018-02-17T20:04:07.089Z,86.10
2018-02-17T20:06:34.536Z,86.20
2018-02-17T20:09:02.356Z,86.40
2018-02-17T20:11:29.800Z,86.40
2018-02-17T20:13:57.248Z,86.40
2018-02-17T20:16:25.043Z,86.70
2018-02-17T20:18:52.477Z,86.70
2018-02-17T20:21:19.920Z,87.00
2018-02-17T20:23:47.354Z,87.80
2018-02-17T20:26:15.180Z,88.70
2018-02-17T20:28:42.604Z,88.70
2018-02-17T20:31:10.041Z,87.50
2018-02-17T20:33:37.460Z,87.10
2018-02-17T20:36:04.966Z,87.20
2018-02-17T20:38:32.661Z,86.60
2018-02-17T20:41:00.087Z,86.60
2018-02-17T20:43:27.543Z,87.00
2018-02-17T20:45:55.381Z,87.70
2018-02-17T20:48:23.204Z,87.80
2018-02-17T20:50:50.645Z,87.80
2018-02-17T20:53:18.125Z,87.00
2018-02-17T20:55:45.554Z,87.00
2018-02-17T20:58:12.981Z,87.40
2018-02-17T21:00:40.416Z,87.00
2018-02-17T21:03:07.833Z,86.80
2018-02-17T21:05:35.344Z,86.80
2018-02-17T21:08:02.714Z,86.80
2018-02-17T21:10:30.149Z,86.70
2018-02-17T21:12:58.003Z,87.00
2018-02-17T21:15:25.505Z,87.00
2018-02-17T21:17:53.307Z,87.70
2018-02-17T21:20:20.741Z,87.70
2018-02-17T21:22:48.156Z,87.80
2018-02-17T21:25:15.590Z,87.30
2018-02-17T21:27:43.007Z,87.80
2018-02-17T21:30:10.436Z,87.60
2018-02-17T21:32:37.862Z,88.10
2018-02-17T21:35:05.303Z,88.10
2018-02-17T21:37:32.726Z,88.40
2018-02-17T21:40:00.184Z,88.90
2018-02-17T21:42:27.602Z,89.20
2018-02-17T21:44:55.416Z,90.50
2018-02-17T21:47:22.851Z,90.50
2018-02-17T21:49:50.272Z,90.80
2018-02-17T21:52:18.108Z,90.80
2018-02-17T21:54:45.529Z,90.80
2018-02-17T21:57:12.957Z,91.10
2018-02-17T21:59:40.398Z,91.10
2018-02-17T22:02:07.833Z,90.80
2018-02-17T22:04:35.297Z,90.90
2018-02-17T22:07:02.702Z,90.80
2018-02-17T22:09:30.120Z,90.20
2018-02-17T22:11:57.581Z,89.70
2018-02-17T22:14:25.133Z,89.80
2018-02-17T22:16:52.573Z,89.30
2018-02-17T22:19:20.002Z,88.90
2018-02-17T22:21:47.428Z,88.70
2018-02-17T22:24:15.257Z,88.40
2018-02-17T22:26:42.694Z,88.40
2018-02-17T22:29:11.681Z,88.00
2018-02-17T22:31:39.129Z,88.20
2018-02-17T22:34:06.564Z,88.10
2018-02-17T22:36:34.002Z,87.90
2018-02-17T22:39:01.447Z,88.00
2018-02-17T22:41:28.868Z,87.90
2018-02-17T22:43:56.306Z,87.90
2018-02-17T22:46:23.732Z,87.90
2018-02-17T22:48:51.164Z,88.10
2018-02-17T22:51:18.686Z,88.20
2018-02-17T22:53:46.101Z,88.10
2018-02-17T22:56:13.528Z,88.30
2018-02-17T22:58:40.960Z,88.20
2018-02-17T23:01:08.390Z,88.40
2018-02-17T23:03:35.820Z,88.40
2018-02-17T23:06:03.657Z,88.10
2018-02-17T23:08:31.082Z,88.10
2018-02-17T23:10:58.518Z,88.10
2018-02-17T23:13:25.940Z,88.20
2018-02-17T23:15:53.372Z,88.20
2018-02-17T23:18:20.797Z,88.90
2018-02-17T23:20:48.228Z,89.80
2018-02-17T23:23:16.044Z,90.60
2018-02-17T23:25:43.489Z,90.60
2018-02-17T23:28:10.931Z,90.60
2018-02-17T23:30:41.986Z,90.40
2018-02-17T23:33:10.981Z,90.40
2018-02-17T23:35:39.303Z,90.10
2018-02-17T23:38:07.133Z,90.30
2018-02-17T23:40:36.348Z,90.60
2018-02-17T23:43:05.717Z,90.90
2018-02-17T23:45:33.162Z,91.10
2018-02-17T23:50:51.443Z,91.50
2018-02-17T23:53:18.939Z,91.90
2018-02-17T23:55:49.627Z,92.20
2018-02-17T23:58:17.927Z,92.90
